Time;durP1;ratioP1;P1;durP2;ratioP2;P2;SDS_P1;SDS_P2;PMS_P1;PMS_P2;Temp;Humidity;BMP_temperature;BMP_pressure;BME280_temperature;BME280_humidity;BME280_pressure;Samples;Min_cycle;Max_cycle;Signal;HPM_P1;HPM_P2
2021/06/21 00:02:02;;;;;;;11.57;9.40;;;20.80;88.00;;;;;;5094343;28;20406;-75
2021/06/21 00:04:28;;;;;;;12.80;9.88;;;20.80;88.00;;;;;;5107008;28;20062;-75
2021/06/21 00:06:53;;;;;;;10.80;9.23;;;20.80;87.80;;;;;;5092924;28;20423;-75
2021/06/21 00:09:19;;;;;;;10.10;9.10;;;20.80;87.60;;;;;;5104754;28;20027;-75
2021/06/21 00:11:45;;;;;;;10.20;8.57;;;20.70;87.50;;;;;;5103622;28;20085;-75
2021/06/21 00:14:10;;;;;;;13.32;8.32;;;20.70;87.70;;;;;;5097122;28;20046;-75
2021/06/21 00:16:36;;;;;;;10.18;7.28;;;20.60;87.90;;;;;;5079190;28;20043;-75
2021/06/21 00:19:02;;;;;;;8.10;7.30;;;20.60;88.10;;;;;;5098831;28;20119;-79
2021/06/21 00:21:27;;;;;;;8.45;7.50;;;20.50;87.90;;;;;;5099247;28;20024;-79
2021/06/21 00:23:53;;;;;;;8.75;7.50;;;20.50;88.20;;;;;;5099377;28;20027;-79
2021/06/21 00:26:19;;;;;;;10.07;8.00;;;20.50;88.20;;;;;;5108703;28;20501;-79
2021/06/21 00:28:44;;;;;;;11.32;7.30;;;20.50;88.40;;;;;;5097035;28;20032;-79
2021/06/21 00:31:10;;;;;;;11.05;8.25;;;20.50;88.30;;;;;;5096605;28;20064;-79
2021/06/21 00:33:36;;;;;;;11.00;7.32;;;20.50;88.20;;;;;;5097160;28;20123;-79
2021/06/21 00:36:01;;;;;;;11.45;7.07;;;20.50;88.30;;;;;;5100724;28;20083;-79
2021/06/21 00:38:27;;;;;;;10.38;7.90;;;20.40;88.50;;;;;;5078655;28;20035;-78
2021/06/21 00:40:53;;;;;;;9.68;7.43;;;20.50;88.80;;;;;;5096667;28;20036;-79
2021/06/21 00:43:18;;;;;;;9.73;7.75;;;20.50;88.70;;;;;;5078568;28;20020;-79
2021/06/21 00:45:44;;;;;;;8.75;7.55;;;20.40;88.90;;;;;;5078626;28;20086;-80
2021/06/21 00:48:09;;;;;;;11.43;8.90;;;20.40;89.20;;;;;;5096510;28;20032;-79
2021/06/21 00:50:35;;;;;;;11.13;8.85;;;20.40;89.30;;;;;;5078040;28;20690;-79
2021/06/21 00:53:01;;;;;;;11.50;9.10;;;20.40;89.40;;;;;;5096178;28;20052;-79
2021/06/21 00:55:29;;;;;;;12.32;9.27;;;20.40;89.50;;;;;;5096042;28;20052;-79
2021/06/21 00:57:55;;;;;;;14.80;9.65;;;20.40;90.20;;;;;;5078078;28;20073;-79
2021/06/21 01:00:23;;;;;;;14.43;9.27;;;20.30;89.90;;;;;;5096079;28;20032;-79
2021/06/21 01:02:49;;;;;;;21.20;11.38;;;20.30;90.10;;;;;;5078149;28;20068;-79
2021/06/21 01:05:21;;;;;;;12.32;8.75;;;20.30;90.20;;;;;;5105694;28;20051;-79
2021/06/21 01:07:47;;;;;;;14.98;11.40;;;20.30;90.20;;;;;;5116417;28;20518;-79
2021/06/21 01:10:15;;;;;;;11.45;9.15;;;20.30;90.50;;;;;;5088693;28;20028;-79
2021/06/21 01:12:46;;;;;;;11.63;8.93;;;20.30;90.20;;;;;;5096009;28;20052;-79
2021/06/21 01:15:32;;;;;;;14.38;10.35;;;20.30;90.30;;;;;;5086795;28;20024;-79
2021/06/21 01:18:07;;;;;;;13.57;9.50;;;20.30;90.20;;;;;;5115365;28;20032;-79
2021/06/21 01:20:49;;;;;;;12.25;9.13;;;20.30;90.30;;;;;;5091856;28;20020;-79
2021/06/21 01:23:27;;;;;;;13.55;9.23;;;20.30;90.20;;;;;;5094786;28;20465;-79
2021/06/21 01:26:01;;;;;;;9.80;8.38;;;20.30;90.30;;;;;;5109609;28;20038;-79
2021/06/21 01:28:42;;;;;;;9.57;8.57;;;20.30;90.40;;;;;;5116130;28;20077;-79
2021/06/21 01:31:15;;;;;;;12.30;8.05;;;20.30;90.20;;;;;;5115930;28;20039;-79
2021/06/21 01:33:42;;;;;;;10.10;8.45;;;20.30;90.30;;;;;;5102436;28;20046;-79
2021/06/21 01:36:11;;;;;;;9.73;8.57;;;20.30;90.20;;;;;;5091501;28;20389;-80
2021/06/21 01:38:40;;;;;;;;;;;20.30;90.20;;;;;;5116155;28;20480;-79
2021/06/21 01:41:18;;;;;;;9.32;7.82;;;20.30;90.10;;;;;;5115097;28;20390;-79
2021/06/21 01:43:44;;;;;;;13.18;8.20;;;20.30;90.30;;;;;;5103043;28;20028;-80
2021/06/21 01:46:14;;;;;;;14.50;7.85;;;20.30;90.30;;;;;;5095535;28;20032;-79
2021/06/21 01:48:46;;;;;;;12.20;9.40;;;20.30;90.20;;;;;;5078442;28;20024;-80
2021/06/21 01:51:12;;;;;;;10.18;6.88;;;20.30;90.20;;;;;;5095241;28;20499;-80
2021/06/21 01:53:39;;;;;;;11.40;6.35;;;20.30;90.20;;;;;;5095184;28;20073;-79
2021/06/21 01:56:11;;;;;;;7.68;5.50;;;20.40;90.10;;;;;;5094838;28;20039;-80
2021/06/21 01:58:38;;;;;;;9.50;6.63;;;20.30;90.10;;;;;;5112496;28;20484;-78
2021/06/21 02:01:14;;;;;;;12.85;8.18;;;20.40;90.10;;;;;;5112788;28;20028;-79
2021/06/21 02:03:44;;;;;;;11.75;7.28;;;20.40;90.10;;;;;;5098741;28;20035;-79
2021/06/21 02:06:11;;;;;;;14.27;6.93;;;20.40;90.10;;;;;;5104331;28;20032;-78
2021/06/21 02:08:38;;;;;;;10.40;6.20;;;20.40;90.10;;;;;;5077099;28;20031;-78
2021/06/21 02:11:05;;;;;;;7.63;5.80;;;20.30;90.00;;;;;;5114538;28;20147;-78
2021/06/21 02:13:33;;;;;;;11.70;5.65;;;20.30;89.90;;;;;;5097119;28;20126;-78
2021/06/21 02:15:59;;;;;;;11.18;5.78;;;20.30;90.00;;;;;;5108990;28;20503;-78
2021/06/21 02:18:26;;;;;;;11.50;5.07;;;20.20;90.00;;;;;;5095023;28;20035;-78
2021/06/21 02:20:53;;;;;;;7.43;5.45;;;20.10;90.00;;;;;;5094790;28;20027;-78
2021/06/21 02:23:22;;;;;;;8.02;6.20;;;20.10;90.00;;;;;;5115182;28;20085;-78
2021/06/21 02:25:49;;;;;;;7.68;5.13;;;20.00;89.70;;;;;;5096792;28;20028;-79
2021/06/21 02:28:23;;;;;;;6.60;5.05;;;19.90;90.00;;;;;;5114918;28;20431;-78
2021/06/21 02:30:50;;;;;;;10.38;5.05;;;19.80;90.20;;;;;;5112688;28;20035;-78
2021/06/21 02:33:17;;;;;;;6.22;5.22;;;19.80;90.30;;;;;;5114217;28;20140;-78
2021/06/21 02:35:44;;;;;;;8.85;5.20;;;19.70;90.20;;;;;;5113186;28;20043;-78
2021/06/21 02:38:10;;;;;;;6.95;6.07;;;19.70;90.20;;;;;;5098248;28;20024;-78
2021/06/21 02:40:36;;;;;;;7.47;6.70;;;19.70;90.10;;;;;;5110139;28;20406;-78
2021/06/21 02:43:02;;;;;;;9.20;5.80;;;19.70;90.10;;;;;;5114697;28;20028;-79
2021/06/21 02:45:29;;;;;;;10.63;5.93;;;19.60;90.20;;;;;;5081978;28;20482;-79
2021/06/21 02:47:55;;;;;;;7.68;5.75;;;19.50;90.10;;;;;;5094620;28;20032;-79
2021/06/21 02:50:21;;;;;;;7.10;6.30;;;19.40;90.20;;;;;;5094601;28;20448;-79
2021/06/21 02:53:02;;;;;;;6.05;5.55;;;19.40;90.30;;;;;;5094246;28;20105;-79
2021/06/21 02:55:52;;;;;;;6.13;4.95;;;19.30;90.20;;;;;;5094132;28;20354;-79
2021/06/21 02:58:22;;;;;;;6.25;5.65;;;19.20;90.40;;;;;;5076175;28;20093;-79
2021/06/21 03:00:53;;;;;;;7.05;5.80;;;19.10;90.40;;;;;;5094017;28;20027;-79
2021/06/21 03:03:21;;;;;;;6.07;5.47;;;19.00;90.60;;;;;;5107380;28;20028;-79
2021/06/21 03:05:50;;;;;;;6.45;5.60;;;19.00;90.70;;;;;;5111807;28;20062;-79
2021/06/21 03:08:18;;;;;;;6.30;4.93;;;18.90;90.70;;;;;;5094079;28;20459;-79
2021/06/21 03:10:44;;;;;;;4.90;4.47;;;18.80;90.70;;;;;;5075894;28;20484;-79
2021/06/21 03:13:11;;;;;;;5.90;4.50;;;18.80;90.80;;;;;;5093895;28;20686;-79
2021/06/21 03:15:37;;;;;;;7.30;4.55;;;18.90;90.80;;;;;;5093705;28;20046;-79
2021/06/21 03:18:04;;;;;;;4.93;4.40;;;18.80;90.90;;;;;;5093695;28;20024;-78
2021/06/21 03:20:30;;;;;;;5.05;4.65;;;18.90;90.80;;;;;;5105629;28;20034;-79
2021/06/21 03:23:01;;;;;;;7.72;5.07;;;18.90;90.50;;;;;;5114365;28;20028;-79
2021/06/21 03:25:29;;;;;;;4.70;4.30;;;18.80;90.50;;;;;;5106930;28;20434;-79
2021/06/21 03:27:57;;;;;;;4.80;4.40;;;18.70;90.50;;;;;;5105407;28;20073;-79
2021/06/21 03:30:23;;;;;;;4.65;4.25;;;18.70;90.80;;;;;;5113989;28;20034;-78
2021/06/21 03:32:51;;;;;;;4.15;3.70;;;18.70;90.80;;;;;;5095760;28;20031;-79
2021/06/21 03:35:17;;;;;;;5.32;3.63;;;18.70;90.90;;;;;;5113790;28;20043;-78
2021/06/21 03:37:43;;;;;;;3.40;3.10;;;18.70;90.70;;;;;;5113846;28;20108;-79
2021/06/21 03:40:11;;;;;;;4.65;3.60;;;18.70;90.60;;;;;;5078745;28;20030;-79
2021/06/21 03:42:38;;;;;;;3.80;3.05;;;18.70;90.50;;;;;;5096200;28;20030;-78
2021/06/21 03:45:05;;;;;;;3.90;3.10;;;18.60;90.40;;;;;;5113841;28;20051;-78
2021/06/21 03:47:31;;;;;;;3.25;2.88;;;18.60;90.50;;;;;;5116518;28;20059;-78
2021/06/21 03:49:57;;;;;;;3.10;2.83;;;18.70;90.50;;;;;;5118179;28;20059;-79
2021/06/21 03:52:22;;;;;;;3.30;3.00;;;18.60;90.60;;;;;;5099846;28;20016;-79
2021/06/21 03:54:48;;;;;;;2.55;2.35;;;18.60;90.30;;;;;;5111590;28;20457;-78
2021/06/21 03:57:14;;;;;;;2.55;2.35;;;18.50;90.50;;;;;;5066155;28;20031;-78
2021/06/21 03:59:40;;;;;;;4.75;2.88;;;18.60;90.50;;;;;;5117844;28;20019;-78
2021/06/21 04:02:05;;;;;;;2.67;2.35;;;18.50;90.40;;;;;;5099572;28;20468;-78
2021/06/21 04:04:31;;;;;;;3.33;2.40;;;18.50;90.20;;;;;;5095193;28;20028;-78
2021/06/21 04:06:57;;;;;;;5.25;1.70;;;18.50;90.10;;;;;;5079163;28;20039;-78
2021/06/21 04:09:22;;;;;;;3.78;1.90;;;18.50;90.10;;;;;;5097347;28;20032;-78
2021/06/21 04:11:49;;;;;;;3.67;1.70;;;18.60;90.20;;;;;;5097307;28;20111;-79
2021/06/21 04:14:15;;;;;;;1.48;1.38;;;18.50;90.10;;;;;;5098360;28;20020;-78
2021/06/21 04:16:42;;;;;;;1.67;1.58;;;18.50;90.00;;;;;;5117196;28;20036;-78
2021/06/21 04:19:08;;;;;;;1.70;1.60;;;18.50;90.20;;;;;;5099111;28;20055;-78
2021/06/21 04:21:35;;;;;;;3.20;1.90;;;18.50;90.10;;;;;;5117430;28;20035;-78
2021/06/21 04:24:00;;;;;;;4.47;1.58;;;18.50;90.00;;;;;;5117383;28;20095;-78
2021/06/21 04:26:26;;;;;;;2.47;1.63;;;18.60;90.00;;;;;;5078946;28;20186;-78
2021/06/21 04:28:52;;;;;;;3.33;1.88;;;18.60;90.00;;;;;;5096906;28;20028;-79
2021/06/21 04:31:18;;;;;;;3.88;2.10;;;18.60;90.10;;;;;;5096983;28;20020;-79
2021/06/21 04:33:45;;;;;;;1.70;1.60;;;18.60;89.50;;;;;;5097078;28;20377;-78
2021/06/21 04:36:10;;;;;;;4.10;1.40;;;18.60;89.20;;;;;;5078396;28;20048;-79
2021/06/21 04:38:36;;;;;;;3.70;1.50;;;18.60;88.80;;;;;;5061924;28;20080;-79
2021/06/21 04:41:02;;;;;;;2.92;1.30;;;18.50;89.10;;;;;;5096696;28;20107;-79
2021/06/21 04:43:28;;;;;;;4.80;1.40;;;18.50;89.30;;;;;;5113371;28;20028;-78
2021/06/21 04:45:53;;;;;;;1.75;1.25;;;18.40;89.20;;;;;;5106603;28;20034;-78
2021/06/21 04:48:19;;;;;;;1.30;1.08;;;18.40;88.90;;;;;;5096450;28;20028;-79
2021/06/21 04:50:45;;;;;;;2.83;1.30;;;18.30;89.00;;;;;;5104599;28;20055;-78
2021/06/21 04:53:12;;;;;;;3.78;1.08;;;18.30;89.30;;;;;;5116843;28;20096;-78
2021/06/21 04:55:38;;;;;;;1.60;1.08;;;18.30;89.30;;;;;;5109882;28;20046;-78
2021/06/21 04:58:04;;;;;;;2.17;1.38;;;18.30;89.30;;;;;;5069142;28;20020;-78
2021/06/21 05:00:30;;;;;;;1.30;1.08;;;18.30;89.00;;;;;;5103084;28;20437;-78
2021/06/21 05:02:55;;;;;;;4.10;1.40;;;18.20;89.00;;;;;;5116695;28;20041;-78
2021/06/21 05:05:22;;;;;;;1.58;1.13;;;18.20;89.10;;;;;;5084213;28;20032;-78
2021/06/21 05:07:49;;;;;;;1.25;1.13;;;18.10;89.10;;;;;;5115928;28;20053;-78
2021/06/21 05:10:18;;;;;;;1.42;1.02;;;18.20;89.20;;;;;;5116299;28;20059;-78
2021/06/21 05:12:44;;;;;;;1.35;0.90;;;18.10;88.90;;;;;;5116424;28;20055;-78
2021/06/21 05:15:10;;;;;;;2.65;0.98;;;18.10;88.80;;;;;;5115232;28;20035;-78
2021/06/21 05:17:36;;;;;;;1.10;1.00;;;18.10;89.10;;;;;;5104660;28;20034;-78
2021/06/21 05:20:03;;;;;;;0.90;0.90;;;18.00;88.80;;;;;;5116127;28;20380;-79
2021/06/21 05:22:29;;;;;;;0.85;0.80;;;18.00;88.60;;;;;;5116106;28;20015;-79
2021/06/21 05:24:54;;;;;;;1.45;0.80;;;18.00;88.50;;;;;;5116075;28;20048;-79
2021/06/21 05:27:21;;;;;;;4.25;0.80;;;17.80;88.70;;;;;;5116320;28;20027;-80
2021/06/21 05:29:46;;;;;;;0.60;0.60;;;17.80;88.90;;;;;;5097964;28;20085;-79
2021/06/21 05:32:12;;;;;;;1.63;0.80;;;17.80;89.20;;;;;;5111648;28;20408;-79
2021/06/21 05:34:38;;;;;;;0.80;0.80;;;17.70;89.30;;;;;;5095495;28;20021;-79
2021/06/21 05:37:04;;;;;;;1.80;0.90;;;17.70;89.00;;;;;;5095466;28;20031;-79
2021/06/21 05:39:29;;;;;;;1.50;0.75;;;17.60;89.10;;;;;;5095597;28;20060;-79
2021/06/21 05:41:55;;;;;;;3.55;0.70;;;17.60;89.20;;;;;;5078791;28;20031;-80
2021/06/21 05:44:21;;;;;;;1.33;0.57;;;17.60;89.00;;;;;;5087498;28;20419;-80
2021/06/21 05:46:47;;;;;;;0.47;0.47;;;17.50;89.30;;;;;;5077306;28;20054;-80
2021/06/21 05:49:13;;;;;;;1.40;0.50;;;17.50;89.50;;;;;;5086076;28;20024;-80
2021/06/21 05:51:38;;;;;;;0.80;0.70;;;17.50;89.40;;;;;;5107527;28;20072;-80
2021/06/21 05:54:04;;;;;;;0.63;0.60;;;17.50;90.10;;;;;;5107855;28;20045;-80
2021/06/21 05:56:30;;;;;;;0.47;0.40;;;17.50;89.40;;;;;;5076585;28;20032;-80
2021/06/21 05:58:55;;;;;;;0.55;0.30;;;17.50;89.70;;;;;;5059898;28;20384;-80
2021/06/21 06:01:21;;;;;;;1.25;0.80;;;17.50;89.70;;;;;;5101567;28;20081;-80
2021/06/21 06:03:47;;;;;;;0.55;0.50;;;17.50;89.50;;;;;;5076488;28;20085;-79
2021/06/21 06:06:12;;;;;;;4.30;0.70;;;17.50;89.40;;;;;;5094877;28;20441;-80
2021/06/21 06:08:38;;;;;;;0.50;0.50;;;17.50;89.20;;;;;;5076240;28;20115;-80
2021/06/21 06:11:03;;;;;;;0.60;0.40;;;17.50;89.20;;;;;;5094506;28;20024;-80
2021/06/21 06:13:29;;;;;;;1.17;0.68;;;17.50;89.50;;;;;;5059917;28;20045;-80
2021/06/21 06:15:55;;;;;;;1.60;0.45;;;17.50;89.30;;;;;;5059926;28;20036;-80
2021/06/21 06:18:20;;;;;;;0.65;0.40;;;17.50;89.00;;;;;;5094863;28;20027;-81
2021/06/21 06:20:46;;;;;;;0.60;0.60;;;17.50;89.20;;;;;;5094633;28;20024;-81
2021/06/21 06:23:12;;;;;;;0.35;0.35;;;17.50;89.30;;;;;;5112613;28;20503;-80
2021/06/21 06:25:38;;;;;;;4.40;0.50;;;17.40;89.30;;;;;;5114877;28;20024;-80
2021/06/21 06:28:05;;;;;;;0.85;0.35;;;17.50;89.40;;;;;;5114055;28;20036;-80
2021/06/21 06:30:30;;;;;;;0.38;0.38;;;17.50;89.30;;;;;;5078793;28;20141;-81
2021/06/21 06:32:56;;;;;;;0.68;0.38;;;17.50;89.60;;;;;;5096436;28;20153;-80
2021/06/21 06:35:22;;;;;;;0.80;0.55;;;17.50;89.00;;;;;;5114553;28;20055;-80
2021/06/21 06:37:49;;;;;;;0.95;0.65;;;17.50;89.80;;;;;;5114790;28;20056;-80
2021/06/21 06:40:16;;;;;;;0.80;0.70;;;17.50;89.60;;;;;;5096238;28;20019;-80
2021/06/21 06:42:43;;;;;;;4.40;0.50;;;17.40;89.30;;;;;;5096624;28;20026;-80
2021/06/21 06:45:09;;;;;;;1.90;0.88;;;17.40;89.30;;;;;;5102072;28;20016;-80
2021/06/21 06:47:35;;;;;;;1.10;0.90;;;17.40;89.60;;;;;;5076208;28;20030;-80
2021/06/21 06:50:02;;;;;;;1.35;0.95;;;17.40;89.70;;;;;;5075919;28;20024;-80
2021/06/21 06:52:27;;;;;;;1.33;0.73;;;17.40;89.50;;;;;;5100481;28;20078;-80
2021/06/21 06:57:39;;;;;;;3.97;0.90;;;17.40;89.60;;;;;;5112029;28;20093;-81
2021/06/21 07:00:11;;;;;;;1.70;0.82;;;17.40;89.70;;;;;;5114349;28;20476;-80
2021/06/21 07:02:37;;;;;;;0.57;0.57;;;17.40;89.80;;;;;;5114195;28;20036;-81
2021/06/21 07:05:05;;;;;;;1.48;1.10;;;17.40;89.60;;;;;;5114184;28;20026;-83
2021/06/21 07:07:31;;;;;;;0.50;0.50;;;17.40;89.70;;;;;;5105046;28;20415;-80
2021/06/21 07:09:56;;;;;;;0.65;0.65;;;17.40;89.90;;;;;;5095831;28;20037;-80
2021/06/21 07:12:22;;;;;;;0.60;0.60;;;17.40;89.90;;;;;;5114166;28;20053;-80
2021/06/21 07:14:48;;;;;;;1.85;0.60;;;17.40;89.70;;;;;;5098532;28;20434;-80
2021/06/21 07:17:13;;;;;;;0.60;0.60;;;17.40;89.60;;;;;;5093861;28;20492;-80
2021/06/21 07:19:41;;;;;;;1.15;0.80;;;17.40;89.20;;;;;;5093801;28;20024;-80
2021/06/21 07:22:07;;;;;;;1.23;0.70;;;17.40;89.40;;;;;;5093962;28;20140;-80
2021/06/21 07:24:34;;;;;;;0.80;0.70;;;17.30;89.50;;;;;;5110140;28;20023;-80
2021/06/21 07:27:01;;;;;;;2.28;0.70;;;17.30;90.00;;;;;;5096131;28;20028;-80
2021/06/21 07:29:26;;;;;;;0.90;0.90;;;17.30;90.00;;;;;;5114192;28;20028;-80
2021/06/21 07:31:52;;;;;;;2.85;1.30;;;17.30;90.10;;;;;;5096162;28;20412;-79
2021/06/21 07:34:18;;;;;;;5.50;1.88;;;17.30;89.80;;;;;;5110600;28;20032;-80
2021/06/21 07:36:44;;;;;;;6.30;2.15;;;17.30;89.70;;;;;;5094810;28;20047;-80
2021/06/21 07:39:10;;;;;;;4.90;2.60;;;17.30;89.70;;;;;;5114411;28;20618;-80
2021/06/21 07:41:36;;;;;;;8.90;2.50;;;17.30;89.90;;;;;;5095997;28;20484;-80
2021/06/21 07:44:02;;;;;;;5.55;2.47;;;17.30;89.90;;;;;;5102300;28;20085;-80
2021/06/21 07:46:28;;;;;;;6.45;2.17;;;17.30;89.80;;;;;;5075668;28;20077;-80
2021/06/21 07:48:53;;;;;;;6.00;2.03;;;17.30;89.70;;;;;;5075800;28;20032;-80
2021/06/21 07:51:20;;;;;;;4.15;2.13;;;17.40;89.40;;;;;;5093759;28;20036;-80
2021/06/21 07:53:47;;;;;;;3.80;1.90;;;17.40;89.40;;;;;;5095566;28;20039;-80
2021/06/21 07:56:13;;;;;;;5.63;2.38;;;17.30;89.40;;;;;;5093776;28;20036;-80
2021/06/21 07:58:41;;;;;;;9.65;2.85;;;17.30;89.50;;;;;;5097944;28;21011;-80
2021/06/21 08:01:08;;;;;;;13.48;2.92;;;17.30;89.60;;;;;;5059183;28;20021;-80
2021/06/21 08:03:34;;;;;;;9.40;2.42;;;17.20;90.10;;;;;;5093400;28;20028;-80
2021/06/21 08:06:04;;;;;;;5.75;1.77;;;17.30;90.00;;;;;;5093559;28;20392;-79
2021/06/21 08:08:30;;;;;;;1.55;1.20;;;17.20;89.90;;;;;;5076201;28;20067;-79
2021/06/21 08:10:56;;;;;;;5.93;1.70;;;17.30;89.90;;;;;;5075363;28;20181;-80
2021/06/21 08:13:22;;;;;;;5.35;1.25;;;17.20;90.10;;;;;;5093304;28;20032;-80
2021/06/21 08:15:48;;;;;;;3.63;1.13;;;17.30;90.00;;;;;;5093222;28;20492;-81
2021/06/21 08:18:14;;;;;;;5.45;1.58;;;17.30;90.00;;;;;;5093201;28;20028;-80
2021/06/21 08:20:43;;;;;;;2.67;0.93;;;17.30;89.70;;;;;;5058623;28;20479;-80
2021/06/21 08:23:14;;;;;;;1.75;0.90;;;17.30;89.40;;;;;;5093119;28;20020;-81
2021/06/21 08:25:42;;;;;;;2.65;0.93;;;17.20;89.60;;;;;;5103396;28;20066;-81
2021/06/21 08:28:09;;;;;;;2.17;0.88;;;17.20;89.80;;;;;;5113775;28;20038;-80
2021/06/21 08:30:35;;;;;;;4.32;0.80;;;17.10;89.80;;;;;;5096083;28;20032;-80
2021/06/21 08:33:00;;;;;;;1.40;0.50;;;17.10;90.00;;;;;;5074611;28;20031;-80
2021/06/21 08:35:26;;;;;;;3.03;1.08;;;17.10;90.00;;;;;;5116835;28;20070;-79
2021/06/21 08:37:52;;;;;;;2.15;0.70;;;17.10;90.10;;;;;;5116444;28;20056;-79
2021/06/21 08:40:21;;;;;;;1.05;0.90;;;17.10;90.20;;;;;;5098505;28;20019;-79
2021/06/21 08:42:47;;;;;;;1.00;0.75;;;17.20;90.20;;;;;;5116945;28;20116;-79
2021/06/21 08:45:13;;;;;;;0.70;0.50;;;17.20;90.00;;;;;;5116800;28;20032;-79
2021/06/21 08:47:38;;;;;;;0.90;0.60;;;17.30;89.80;;;;;;5116707;28;20027;-79
2021/06/21 08:50:07;;;;;;;0.80;0.80;;;17.30;89.80;;;;;;5084069;28;20492;-78
2021/06/21 08:52:33;;;;;;;;;;;17.30;89.80;;;;;;5096088;28;20376;-78
2021/06/21 08:55:05;;;;;;;1.38;0.82;;;17.40;89.60;;;;;;5095586;28;19934;-79
2021/06/21 08:57:43;;;;;;;1.23;0.77;;;17.30;89.60;;;;;;5077306;28;20123;-79
2021/06/21 09:00:14;;;;;;;2.00;1.37;;;17.40;89.80;;;;;;5090938;28;20088;-78
2021/06/21 09:02:40;;;;;;;1.40;1.30;;;17.40;89.80;;;;;;5115982;28;20032;-79
2021/06/21 09:05:07;;;;;;;2.85;1.15;;;17.40;89.70;;;;;;5080134;28;20043;-79
2021/06/21 09:07:33;;;;;;;3.65;0.95;;;17.50;89.50;;;;;;5095462;28;20020;-79
2021/06/21 09:10:01;;;;;;;1.23;1.13;;;17.40;89.50;;;;;;5095849;28;20025;-78
2021/06/21 09:12:29;;;;;;;0.53;0.53;;;17.40;89.40;;;;;;5095869;28;20472;-79
2021/06/21 09:14:56;;;;;;;0.85;0.85;;;17.40;89.50;;;;;;5077807;28;20517;-78
2021/06/21 09:17:27;;;;;;;0.80;0.80;;;17.40;89.50;;;;;;5095816;28;20040;-79
2021/06/21 09:20:04;;;;;;;1.98;1.10;;;17.40;89.40;;;;;;5077186;28;20415;-79
2021/06/21 09:22:38;;;;;;;1.90;0.98;;;17.30;89.60;;;;;;5104259;28;20073;-79
2021/06/21 09:25:24;;;;;;;3.10;1.17;;;17.40;89.80;;;;;;5116119;28;20099;-78
2021/06/21 09:28:08;;;;;;;1.45;1.15;;;17.30;89.60;;;;;;5115992;28;20012;-78
2021/06/21 09:30:49;;;;;;;1.30;1.20;;;17.40;89.90;;;;;;5115772;28;20094;-79
2021/06/21 09:33:31;;;;;;;4.13;1.90;;;17.40;90.00;;;;;;5116046;28;20115;-79
2021/06/21 09:35:56;;;;;;;1.38;1.25;;;17.40;89.90;;;;;;5115545;28;20142;-79
2021/06/21 09:38:22;;;;;;;1.50;1.40;;;17.50;90.10;;;;;;5097292;28;20073;-78
2021/06/21 09:40:49;;;;;;;1.40;1.30;;;17.60;90.10;;;;;;5115199;28;20062;-78
2021/06/21 09:43:26;;;;;;;1.63;1.38;;;17.60;89.60;;;;;;5115553;28;20016;-79
2021/06/21 09:46:15;;;;;;;1.65;1.50;;;17.80;89.30;;;;;;5096731;28;20039;-79
2021/06/21 09:48:49;;;;;;;5.43;1.48;;;17.80;89.10;;;;;;5115802;28;20053;-78
2021/06/21 09:51:36;;;;;;;1.58;1.27;;;17.90;89.10;;;;;;5097383;28;20448;-79
2021/06/21 09:54:14;;;;;;;1.80;1.40;;;18.00;88.90;;;;;;5095279;28;20039;-79
2021/06/21 09:56:48;;;;;;;2.90;1.42;;;18.10;87.70;;;;;;5095456;28;20035;-80
2021/06/21 09:59:17;;;;;;;2.17;1.98;;;18.00;87.40;;;;;;5095403;28;20136;-80
2021/06/21 10:01:44;;;;;;;2.90;1.38;;;18.00;88.00;;;;;;5094456;28;20028;-74
2021/06/21 10:04:23;;;;;;;4.45;1.88;;;18.10;87.70;;;;;;5094410;28;20039;-74
2021/06/21 10:06:49;;;;;;;1.48;1.35;;;18.20;89.50;;;;;;5094400;28;20024;-74
2021/06/21 10:09:15;;;;;;;1.23;1.10;;;18.40;88.50;;;;;;5076308;28;20107;-74
2021/06/21 10:11:43;;;;;;;4.00;1.48;;;18.60;87.90;;;;;;5094421;28;20024;-74
2021/06/21 10:14:19;;;;;;;1.48;1.38;;;18.60;87.40;;;;;;5094167;28;20024;-74
2021/06/21 10:16:48;;;;;;;1.30;1.20;;;18.60;87.10;;;;;;5094122;28;20063;-74
2021/06/21 10:19:15;;;;;;;2.00;1.50;;;18.50;87.30;;;;;;5094144;28;20417;-74
2021/06/21 10:21:52;;;;;;;10.52;1.77;;;18.50;87.30;;;;;;5076132;28;20103;-74
2021/06/21 10:24:18;;;;;;;1.70;1.50;;;18.50;87.00;;;;;;5114428;28;20094;-73
2021/06/21 10:26:49;;;;;;;1.00;1.00;;;18.60;87.30;;;;;;5114454;28;20027;-74
2021/06/21 10:29:15;;;;;;;1.30;1.20;;;18.60;86.90;;;;;;5114319;28;20092;-73
2021/06/21 10:31:43;;;;;;;1.33;1.23;;;18.60;86.50;;;;;;5100476;28;20476;-73
2021/06/21 10:34:09;;;;;;;1.10;0.90;;;18.60;86.60;;;;;;5093623;28;20115;-74
2021/06/21 10:36:47;;;;;;;0.80;0.80;;;18.50;86.30;;;;;;5075527;28;20431;-73
2021/06/21 10:39:15;;;;;;;3.05;1.10;;;18.40;86.60;;;;;;5103767;28;20012;-73
2021/06/21 10:41:59;;;;;;;1.20;1.10;;;18.30;86.50;;;;;;5099506;28;20032;-73
2021/06/21 10:44:38;;;;;;;1.08;1.08;;;18.30;86.90;;;;;;5101517;28;20046;-74
2021/06/21 10:47:23;;;;;;;1.48;1.00;;;18.20;86.90;;;;;;5105592;28;20059;-73
2021/06/21 10:50:01;;;;;;;2.60;1.10;;;18.20;86.20;;;;;;5079717;28;20067;-80
2021/06/21 10:52:39;;;;;;;2.50;1.05;;;18.10;86.10;;;;;;5113037;28;20034;-80
2021/06/21 10:55:33;;;;;;;1.63;1.10;;;18.10;86.80;;;;;;5114209;28;20028;-78
2021/06/21 10:58:23;;;;;;;1.10;1.00;;;18.10;87.00;;;;;;5095935;28;20042;-79
2021/06/21 11:00:51;;;;;;;2.92;1.23;;;18.10;86.90;;;;;;5105373;28;20504;-78
2021/06/21 11:03:26;;;;;;;1.40;1.15;;;18.10;87.00;;;;;;5094432;28;20061;-79
2021/06/21 11:05:56;;;;;;;3.15;1.00;;;18.10;87.40;;;;;;5114027;28;20076;-79
2021/06/21 11:08:24;;;;;;;1.45;1.20;;;18.10;87.20;;;;;;5114276;28;20047;-79
2021/06/21 11:10:53;;;;;;;4.60;1.60;;;18.10;87.00;;;;;;5114343;28;20455;-79
2021/06/21 11:13:36;;;;;;;4.80;1.67;;;18.10;87.00;;;;;;5114089;28;20039;-79
2021/06/21 11:16:14;;;;;;;3.13;1.70;;;18.20;87.40;;;;;;5114057;28;20035;-79
2021/06/21 11:18:40;;;;;;;2.13;1.30;;;18.10;87.40;;;;;;5095823;28;20053;-79
2021/06/21 11:21:14;;;;;;;3.42;1.20;;;18.10;87.20;;;;;;5095610;28;20032;-79
2021/06/21 11:23:42;;;;;;;2.45;1.27;;;18.20;87.60;;;;;;5093401;28;20043;-78
2021/06/21 11:26:08;;;;;;;1.25;1.15;;;18.20;87.40;;;;;;5093483;28;20020;-79
2021/06/21 11:28:37;;;;;;;3.13;1.33;;;18.30;87.00;;;;;;5075269;28;20081;-79
2021/06/21 11:31:18;;;;;;;1.50;1.40;;;18.30;86.80;;;;;;5104096;28;20487;-79
2021/06/21 11:33:50;;;;;;;3.42;1.88;;;18.40;86.40;;;;;;5113544;28;20556;-78
2021/06/21 11:36:42;;;;;;;1.70;1.30;;;18.40;86.20;;;;;;5113390;28;20164;-78
2021/06/21 11:39:17;;;;;;;3.25;1.83;;;18.30;85.90;;;;;;5094510;28;20035;-79
2021/06/21 11:42:03;;;;;;;2.55;1.65;;;18.30;86.30;;;;;;5093271;28;20516;-79
2021/06/21 11:44:45;;;;;;;2.00;1.90;;;18.30;86.60;;;;;;5075218;28;20107;-78
2021/06/21 11:47:17;;;;;;;1.83;1.70;;;18.30;86.20;;;;;;5093737;28;20499;-78
2021/06/21 11:49:44;;;;;;;1.90;1.45;;;18.30;87.00;;;;;;5113511;28;20078;-77
2021/06/21 11:52:14;;;;;;;2.75;1.70;;;18.20;85.20;;;;;;5113852;28;20098;-77
2021/06/21 11:54:42;;;;;;;3.45;1.70;;;18.20;86.20;;;;;;5113808;28;20023;-78
2021/06/21 11:57:08;;;;;;;1.98;1.88;;;18.20;87.00;;;;;;5095623;28;20035;-78
2021/06/21 11:59:40;;;;;;;5.13;1.50;;;18.30;86.40;;;;;;5113837;28;20066;-78
2021/06/21 12:02:12;;;;;;;6.38;1.60;;;18.50;85.70;;;;;;5113929;28;20035;-78
2021/06/21 12:04:39;;;;;;;2.42;1.30;;;18.70;84.70;;;;;;5094153;28;20024;-77
2021/06/21 12:07:06;;;;;;;1.30;1.20;;;18.80;84.20;;;;;;5097631;28;20016;-77
2021/06/21 12:09:53;;;;;;;3.35;1.20;;;18.90;83.20;;;;;;5117553;28;20487;-78
2021/06/21 12:12:27;;;;;;;2.78;1.17;;;19.00;82.30;;;;;;5097283;28;20499;-77
2021/06/21 12:14:54;;;;;;;4.25;1.60;;;19.00;81.60;;;;;;5097294;28;20031;-78
2021/06/21 12:17:24;;;;;;;3.05;1.73;;;19.00;82.40;;;;;;5079223;28;20028;-78
2021/06/21 12:20:15;;;;;;;3.95;1.80;;;19.00;83.30;;;;;;5100736;28;20023;-78
2021/06/21 12:22:52;;;;;;;1.95;1.83;;;19.00;83.40;;;;;;5117756;28;20028;-78
2021/06/21 12:25:27;;;;;;;1.70;1.58;;;19.10;83.30;;;;;;5117304;28;20054;-78
2021/06/21 12:27:54;;;;;;;4.65;2.00;;;19.10;83.10;;;;;;5117034;28;20020;-78
2021/06/21 12:30:37;;;;;;;1.40;1.30;;;19.10;83.10;;;;;;5117048;28;20472;-78
2021/06/21 12:33:24;;;;;;;1.92;1.60;;;19.20;82.60;;;;;;5096747;28;20115;-78
2021/06/21 12:36:10;;;;;;;2.45;1.63;;;19.50;82.00;;;;;;5096008;28;20036;-82
2021/06/21 12:38:38;;;;;;;1.40;1.30;;;19.60;80.70;;;;;;5107070;28;20035;-78
2021/06/21 12:41:31;;;;;;;1.77;1.30;;;19.70;80.90;;;;;;5117245;28;20020;-78
2021/06/21 12:43:57;;;;;;;1.50;1.40;;;19.80;79.60;;;;;;5113060;28;20028;-78
2021/06/21 12:46:26;;;;;;;1.50;1.10;;;19.60;78.50;;;;;;5117135;28;20077;-77
2021/06/21 12:48:53;;;;;;;1.52;1.42;;;19.60;80.20;;;;;;5117193;28;20027;-77
2021/06/21 12:51:19;;;;;;;1.50;1.40;;;19.50;79.80;;;;;;5116772;28;20023;-78
2021/06/21 12:53:49;;;;;;;1.33;1.20;;;19.40;79.70;;;;;;5116938;28;20110;-77
2021/06/21 12:56:21;;;;;;;2.88;1.10;;;19.40;79.80;;;;;;5116833;28;20357;-77
2021/06/21 12:58:47;;;;;;;1.63;1.52;;;19.40;80.30;;;;;;5116911;28;20016;-77